Time;durP1;ratioP1;P1;durP2;ratioP2;P2;SDS_P1;SDS_P2;PMS_P1;PMS_P2;Temp;Humidity;BMP_temperature;BMP_pressure;BME280_temperature;BME280_humidity;BME280_pressure;Samples;Min_cycle;Max_cycle;Signal;HPM_P1;HPM_P2
2024/03/21 00:00:30;;;;;;;17.48;8.73;;;;;;;;;;5073396;28;20074;-79
2024/03/21 00:02:56;;;;;;;17.50;10.02;;;;;;;;;;5065790;28;20053;-79
2024/03/21 00:05:22;;;;;;;16.00;9.13;;;;;;;;;;5077272;28;20086;-79
2024/03/21 00:07:49;;;;;;;14.48;9.40;;;;;;;;;;5072893;28;20037;-79
2024/03/21 00:10:15;;;;;;;15.57;9.23;;;;;;;;;;5060285;28;20044;-79
2024/03/21 00:12:41;;;;;;;16.38;9.32;;;;;;;;;;5059664;28;20036;-79
2024/03/21 00:15:07;;;;;;;14.82;9.23;;;;;;;;;;5076250;28;20402;-79
2024/03/21 00:17:34;;;;;;;12.88;7.60;;;;;;;;;;5063992;28;20119;-78
2024/03/21 00:20:01;;;;;;;10.85;7.20;;;;;;;;;;5072604;28;20036;-79
2024/03/21 00:22:26;;;;;;;11.63;7.50;;;;;;;;;;5081742;28;20085;-78
2024/03/21 00:24:51;;;;;;;12.02;7.00;;;;;;;;;;5073809;28;20040;-79
2024/03/21 00:27:17;;;;;;;12.40;7.00;;;;;;;;;;5070409;28;20040;-78
2024/03/21 00:29:42;;;;;;;11.80;6.60;;;;;;;;;;5067635;28;20043;-79
2024/03/21 00:32:08;;;;;;;11.75;6.85;;;;;;;;;;5073997;28;20067;-77
2024/03/21 00:34:33;;;;;;;10.25;6.53;;;;;;;;;;5065817;28;20288;-77
2024/03/21 00:36:59;;;;;;;12.82;7.43;;;;;;;;;;5071889;28;20045;-79
2024/03/21 00:39:24;;;;;;;11.15;6.68;;;;;;;;;;5077232;28;20036;-78
2024/03/21 00:41:50;;;;;;;10.68;6.63;;;;;;;;;;5077941;28;20032;-79
2024/03/21 00:44:15;;;;;;;13.15;8.13;;;;;;;;;;5072461;27;20096;-78
2024/03/21 00:46:41;;;;;;;11.55;6.53;;;;;;;;;;5060452;28;20037;-78
2024/03/21 00:49:08;;;;;;;14.60;6.85;;;;;;;;;;5073667;28;20043;-78
2024/03/21 00:51:34;;;;;;;9.93;6.75;;;;;;;;;;5053188;28;20110;-78
2024/03/21 00:54:00;;;;;;;13.88;8.20;;;;;;;;;;5069292;28;20037;-78
2024/03/21 00:56:25;;;;;;;10.75;6.82;;;;;;;;;;5072207;28;20354;-78
2024/03/21 00:58:51;;;;;;;9.50;6.25;;;;;;;;;;5067970;28;20032;-77
2024/03/21 01:01:16;;;;;;;24.58;6.30;;;;;;;;;;5045123;28;20463;-78
2024/03/21 01:03:43;;;;;;;10.85;5.95;;;;;;;;;;5072604;28;20058;-78
2024/03/21 01:06:08;;;;;;;11.40;7.13;;;;;;;;;;5074769;28;20086;-78
2024/03/21 01:08:34;;;;;;;14.15;7.90;;;;;;;;;;5071976;28;20800;-78
2024/03/21 01:10:59;;;;;;;12.32;6.75;;;;;;;;;;5050448;28;20052;-78
2024/03/21 01:13:25;;;;;;;11.48;6.75;;;;;;;;;;5072799;28;20072;-78
2024/03/21 01:15:50;;;;;;;9.55;6.43;;;;;;;;;;5066118;28;20032;-78
2024/03/21 01:18:16;;;;;;;10.20;6.28;;;;;;;;;;5075455;28;20028;-79
2024/03/21 01:20:42;;;;;;;10.60;7.00;;;;;;;;;;5069286;28;20048;-79
2024/03/21 01:23:08;;;;;;;9.63;6.15;;;;;;;;;;5074667;28;20479;-77
2024/03/21 01:25:34;;;;;;;12.02;6.50;;;;;;;;;;5080624;28;20299;-78
2024/03/21 01:28:02;;;;;;;10.88;5.85;;;;;;;;;;5058423;28;20115;-78
2024/03/21 01:30:32;;;;;;;10.65;6.85;;;;;;;;;;5067933;28;20077;-78
2024/03/21 01:32:58;;;;;;;11.83;7.57;;;;;;;;;;5055681;28;20032;-78
2024/03/21 01:35:25;;;;;;;11.70;6.82;;;;;;;;;;5070272;28;20127;-78
2024/03/21 01:37:50;;;;;;;10.15;6.43;;;;;;;;;;5058230;28;20032;-79
2024/03/21 01:40:16;;;;;;;11.25;6.25;;;;;;;;;;5067688;28;20123;-78
2024/03/21 01:42:43;;;;;;;11.43;6.78;;;;;;;;;;5060344;28;20036;-79
2024/03/21 01:45:10;;;;;;;12.90;6.88;;;;;;;;;;5075064;28;20036;-78
2024/03/21 01:47:36;;;;;;;10.73;6.20;;;;;;;;;;5072434;28;20515;-79
2024/03/21 01:50:02;;;;;;;7.00;4.40;;;;;;;;;;5062387;28;20070;-78
2024/03/21 01:52:28;;;;;;;12.60;7.63;;;;;;;;;;5072998;28;20060;-78
2024/03/21 01:54:55;;;;;;;10.85;6.63;;;;;;;;;;5076227;28;20032;-79
2024/03/21 01:57:21;;;;;;;12.45;6.05;;;;;;;;;;5075793;28;20043;-78
2024/03/21 01:59:47;;;;;;;11.75;6.35;;;;;;;;;;5062611;28;20036;-78
2024/03/21 02:02:12;;;;;;;7.30;4.90;;;;;;;;;;5065717;28;20265;-78
2024/03/21 02:04:38;;;;;;;11.60;5.68;;;;;;;;;;5059598;28;20033;-79
2024/03/21 02:07:04;;;;;;;9.35;6.15;;;;;;;;;;5063540;28;20492;-78
2024/03/21 02:09:31;;;;;;;15.25;6.97;;;;;;;;;;5055430;28;20056;-78
2024/03/21 02:12:05;;;;;;;14.65;7.15;;;;;;;;;;5064768;28;20374;-78
2024/03/21 02:14:33;;;;;;;12.45;6.93;;;;;;;;;;5072166;28;20051;-78
2024/03/21 02:16:59;;;;;;;13.05;6.63;;;;;;;;;;5044650;28;20138;-78
2024/03/21 02:19:24;;;;;;;7.32;4.20;;;;;;;;;;5069591;28;20064;-78
2024/03/21 02:24:34;;;;;;;11.68;6.47;;;;;;;;;;5061353;28;20248;-77
2024/03/21 02:26:59;;;;;;;10.68;7.03;;;;;;;;;;5065197;28;20036;-78
2024/03/21 02:29:25;;;;;;;6.57;4.18;;;;;;;;;;5071960;28;20105;-78
2024/03/21 02:31:50;;;;;;;5.88;3.95;;;;;;;;;;5037225;28;20044;-78
2024/03/21 02:34:16;;;;;;;13.02;6.78;;;;;;;;;;5050753;28;20064;-77
2024/03/21 02:36:41;;;;;;;12.68;6.90;;;;;;;;;;5051961;28;20040;-77
2024/03/21 02:39:06;;;;;;;11.68;6.28;;;;;;;;;;5060173;28;20047;-77
2024/03/21 02:41:32;;;;;;;8.38;5.57;;;;;;;;;;5070830;28;20047;-77
2024/03/21 02:43:57;;;;;;;8.93;6.13;;;;;;;;;;5074717;28;20070;-77
2024/03/21 02:46:22;;;;;;;10.35;6.03;;;;;;;;;;5051004;28;20120;-76
2024/03/21 02:48:48;;;;;;;6.30;3.53;;;;;;;;;;5062071;28;20066;-77
2024/03/21 02:51:13;;;;;;;4.55;2.83;;;;;;;;;;5070420;28;20115;-77
2024/03/21 02:53:39;;;;;;;13.85;7.78;;;;;;;;;;5048656;28;20045;-78
2024/03/21 02:56:05;;;;;;;17.83;9.15;;;;;;;;;;5050576;28;20043;-78
2024/03/21 02:58:30;;;;;;;15.80;8.07;;;;;;;;;;5056601;28;20055;-77
2024/03/21 03:00:56;;;;;;;5.45;3.58;;;;;;;;;;5069084;28;20043;-79
2024/03/21 03:03:21;;;;;;;21.27;9.07;;;;;;;;;;5064107;28;20902;-78
2024/03/21 03:05:47;;;;;;;16.05;9.48;;;;;;;;;;5048358;28;20044;-79
2024/03/21 03:08:12;;;;;;;5.97;4.43;;;;;;;;;;5074100;28;20039;-79
2024/03/21 03:10:37;;;;;;;18.10;8.45;;;;;;;;;;5070530;28;20127;-79
2024/03/21 03:13:03;;;;;;;12.57;5.65;;;;;;;;;;5065802;28;20043;-78
2024/03/21 03:15:29;;;;;;;5.80;3.63;;;;;;;;;;5062975;28;20066;-79
2024/03/21 03:17:54;;;;;;;5.82;3.35;;;;;;;;;;5067638;28;20047;-78
2024/03/21 03:20:20;;;;;;;5.07;3.75;;;;;;;;;;5073244;28;20032;-78
2024/03/21 03:22:45;;;;;;;2.97;2.42;;;;;;;;;;5061101;28;20343;-78
2024/03/21 03:25:11;;;;;;;9.02;5.57;;;;;;;;;;5078632;28;20105;-79
2024/03/21 03:27:36;;;;;;;9.80;6.50;;;;;;;;;;5077714;28;20090;-78
2024/03/21 03:30:03;;;;;;;7.95;4.70;;;;;;;;;;5074160;28;20131;-79
2024/03/21 03:32:30;;;;;;;4.25;3.17;;;;;;;;;;5074053;28;20040;-78
2024/03/21 03:37:39;;;;;;;6.65;4.22;;;;;;;;;;5068219;28;20043;-78
2024/03/21 03:40:05;;;;;;;6.68;4.40;;;;;;;;;;5082037;28;20526;-79
2024/03/21 03:42:30;;;;;;;8.15;4.55;;;;;;;;;;5080603;28;20036;-78
2024/03/21 03:44:56;;;;;;;9.95;6.00;;;;;;;;;;5075109;28;20074;-78
2024/03/21 03:47:21;;;;;;;9.95;5.22;;;;;;;;;;5079798;28;20089;-79
2024/03/21 03:49:46;;;;;;;6.28;4.15;;;;;;;;;;5085092;28;20042;-78
2024/03/21 03:52:12;;;;;;;6.43;3.55;;;;;;;;;;5081534;28;20127;-78
2024/03/21 03:54:37;;;;;;;9.35;5.50;;;;;;;;;;5065830;28;20044;-79
2024/03/21 03:57:03;;;;;;;13.00;7.63;;;;;;;;;;5077306;28;20830;-79
2024/03/21 03:59:28;;;;;;;12.13;7.35;;;;;;;;;;5061495;28;20525;-78
2024/03/21 04:01:53;;;;;;;8.55;5.47;;;;;;;;;;5072837;27;20040;-78
2024/03/21 04:04:19;;;;;;;5.13;3.55;;;;;;;;;;5086456;28;20169;-78
2024/03/21 04:06:44;;;;;;;7.70;5.47;;;;;;;;;;5068537;28;20037;-79
2024/03/21 04:09:09;;;;;;;4.68;2.85;;;;;;;;;;5073037;28;20127;-79
2024/03/21 04:11:35;;;;;;;7.97;4.57;;;;;;;;;;5079224;28;20119;-79
2024/03/21 04:14:00;;;;;;;6.85;3.65;;;;;;;;;;5063936;27;20033;-78
2024/03/21 04:16:26;;;;;;;6.43;4.30;;;;;;;;;;5076191;28;20618;-78
2024/03/21 04:18:51;;;;;;;10.38;5.57;;;;;;;;;;5061085;28;20044;-77
2024/03/21 04:21:17;;;;;;;9.20;4.10;;;;;;;;;;5059577;28;20036;-78
2024/03/21 04:23:42;;;;;;;10.40;5.70;;;;;;;;;;5058760;28;20028;-78
2024/03/21 04:26:07;;;;;;;9.20;4.47;;;;;;;;;;5059645;28;20531;-77
2024/03/21 04:28:33;;;;;;;10.45;6.40;;;;;;;;;;5079580;28;20065;-79
2024/03/21 04:30:58;;;;;;;12.73;7.07;;;;;;;;;;5062677;28;20043;-79
2024/03/21 04:33:23;;;;;;;13.38;7.40;;;;;;;;;;5079609;28;20056;-79
2024/03/21 04:35:49;;;;;;;8.98;4.93;;;;;;;;;;5062261;28;20646;-78
2024/03/21 04:38:15;;;;;;;6.68;4.25;;;;;;;;;;5061749;28;20082;-78
2024/03/21 04:40:40;;;;;;;8.70;4.30;;;;;;;;;;5067529;28;20444;-78
2024/03/21 04:43:05;;;;;;;8.35;4.75;;;;;;;;;;5058015;28;20028;-78
2024/03/21 04:45:31;;;;;;;5.07;3.58;;;;;;;;;;5069612;28;20056;-78
2024/03/21 04:47:56;;;;;;;6.10;3.88;;;;;;;;;;5057062;28;20079;-78
2024/03/21 04:50:23;;;;;;;16.27;7.97;;;;;;;;;;5074087;28;20036;-79
2024/03/21 04:52:48;;;;;;;4.30;2.70;;;;;;;;;;5062272;28;20032;-78
2024/03/21 04:55:14;;;;;;;15.63;9.25;;;;;;;;;;5050683;28;20044;-79
2024/03/21 04:57:39;;;;;;;10.85;5.88;;;;;;;;;;5064948;28;20627;-78
2024/03/21 05:00:10;;;;;;;12.40;6.78;;;;;;;;;;5072488;28;20142;-78
2024/03/21 05:02:38;;;;;;;5.07;3.30;;;;;;;;;;5074213;28;20381;-78
2024/03/21 05:05:04;;;;;;;16.08;7.65;;;;;;;;;;5062841;28;20065;-78
2024/03/21 05:07:30;;;;;;;10.98;4.97;;;;;;;;;;5072651;28;20033;-79
2024/03/21 05:09:56;;;;;;;12.13;7.20;;;;;;;;;;5057728;28;20029;-78
2024/03/21 05:12:22;;;;;;;13.57;7.35;;;;;;;;;;5063569;28;20062;-78
2024/03/21 05:14:47;;;;;;;4.53;3.38;;;;;;;;;;5077360;28;20036;-78
2024/03/21 05:17:16;;;;;;;11.05;6.28;;;;;;;;;;5081809;28;20062;-78
2024/03/21 05:19:42;;;;;;;15.48;7.25;;;;;;;;;;5074587;28;20044;-77
2024/03/21 05:22:07;;;;;;;11.30;7.38;;;;;;;;;;5057808;28;20059;-78
2024/03/21 05:24:33;;;;;;;12.90;7.90;;;;;;;;;;5042474;28;20044;-78
2024/03/21 05:27:00;;;;;;;8.18;4.72;;;;;;;;;;5060552;28;20138;-78
2024/03/21 05:29:25;;;;;;;12.88;6.50;;;;;;;;;;5058097;28;20578;-78
2024/03/21 05:31:51;;;;;;;14.57;8.00;;;;;;;;;;5064577;28;20040;-79
2024/03/21 05:34:16;;;;;;;15.15;7.80;;;;;;;;;;5062105;28;20048;-78
2024/03/21 05:36:42;;;;;;;12.60;8.25;;;;;;;;;;5072357;28;20032;-79
2024/03/21 05:39:08;;;;;;;14.75;7.47;;;;;;;;;;5050609;28;20048;-78
2024/03/21 05:41:33;;;;;;;12.25;6.38;;;;;;;;;;5073947;28;20089;-79
2024/03/21 05:43:58;;;;;;;11.52;7.38;;;;;;;;;;5057763;28;20025;-77
2024/03/21 05:46:26;;;;;;;10.63;7.18;;;;;;;;;;5068457;28;20040;-79
2024/03/21 05:48:56;;;;;;;16.90;7.70;;;;;;;;;;5073106;28;20040;-78
2024/03/21 05:51:27;;;;;;;10.85;7.00;;;;;;;;;;5062049;28;20071;-78
2024/03/21 05:53:52;;;;;;;5.22;3.13;;;;;;;;;;5048470;28;20040;-79
2024/03/21 05:56:20;;;;;;;12.57;7.13;;;;;;;;;;5063279;28;20036;-79
2024/03/21 05:58:45;;;;;;;14.80;8.07;;;;;;;;;;5070658;28;20040;-78
2024/03/21 06:03:41;;;;;;;15.68;7.85;;;;;;;;;;5069838;28;20042;-77
2024/03/21 06:06:06;;;;;;;12.85;7.65;;;;;;;;;;5072815;28;20032;-77
2024/03/21 06:08:32;;;;;;;13.40;7.55;;;;;;;;;;5067800;28;20039;-78
2024/03/21 06:10:57;;;;;;;13.85;8.15;;;;;;;;;;5054743;28;20064;-77
2024/03/21 06:13:23;;;;;;;15.32;8.25;;;;;;;;;;5074549;28;20048;-77
2024/03/21 06:15:48;;;;;;;15.48;8.50;;;;;;;;;;5064071;28;20431;-78
2024/03/21 06:18:17;;;;;;;12.57;7.53;;;;;;;;;;5067682;28;20064;-77
2024/03/21 06:20:42;;;;;;;5.78;3.90;;;;;;;;;;5067779;28;20751;-77
2024/03/21 06:23:08;;;;;;;13.15;7.97;;;;;;;;;;5063230;28;20154;-78
2024/03/21 06:25:33;;;;;;;15.88;8.68;;;;;;;;;;5052483;28;20039;-77
2024/03/21 06:28:00;;;;;;;12.43;7.03;;;;;;;;;;5058749;28;20095;-77
2024/03/21 06:30:26;;;;;;;13.77;7.55;;;;;;;;;;5055932;28;20035;-78
2024/03/21 06:32:53;;;;;;;12.70;8.18;;;;;;;;;;5049310;28;20040;-77
2024/03/21 06:35:18;;;;;;;13.82;7.60;;;;;;;;;;5063351;28;20070;-78
2024/03/21 06:37:43;;;;;;;12.45;7.22;;;;;;;;;;5049110;28;20032;-78
2024/03/21 06:40:09;;;;;;;8.77;5.25;;;;;;;;;;5067939;28;20036;-78
2024/03/21 06:42:35;;;;;;;13.50;7.63;;;;;;;;;;5059961;28;20665;-78
2024/03/21 06:45:01;;;;;;;7.32;4.07;;;;;;;;;;5063945;28;20036;-78
2024/03/21 06:47:27;;;;;;;5.00;2.97;;;;;;;;;;5058030;28;20044;-78
2024/03/21 06:49:58;;;;;;;10.27;6.03;;;;;;;;;;5056874;28;20045;-78
2024/03/21 06:52:24;;;;;;;12.98;7.60;;;;;;;;;;5068819;28;20103;-77
2024/03/21 06:54:50;;;;;;;14.70;7.80;;;;;;;;;;5063296;28;20090;-78
2024/03/21 06:57:16;;;;;;;15.65;7.90;;;;;;;;;;5076300;28;20063;-78
2024/03/21 06:59:41;;;;;;;16.58;8.02;;;;;;;;;;5061481;28;20067;-78
2024/03/21 07:02:07;;;;;;;14.85;8.00;;;;;;;;;;5048232;28;20040;-78
2024/03/21 07:04:33;;;;;;;15.13;8.30;;;;;;;;;;5064153;28;20072;-78
2024/03/21 07:06:58;;;;;;;13.50;7.30;;;;;;;;;;5075735;28;20439;-78
2024/03/21 07:09:23;;;;;;;13.57;7.68;;;;;;;;;;5077651;28;20056;-78
2024/03/21 07:11:50;;;;;;;16.88;8.45;;;;;;;;;;5080216;28;20056;-78
2024/03/21 07:14:15;;;;;;;16.35;8.32;;;;;;;;;;5076824;28;20079;-78
2024/03/21 07:16:41;;;;;;;16.42;8.05;;;;;;;;;;5078702;28;20036;-78
2024/03/21 07:19:06;;;;;;;5.85;3.90;;;;;;;;;;5050899;28;20066;-78
2024/03/21 07:21:32;;;;;;;15.23;7.45;;;;;;;;;;5059720;28;20095;-78
2024/03/21 07:23:57;;;;;;;13.50;7.60;;;;;;;;;;5062581;28;20037;-78
2024/03/21 07:26:22;;;;;;;11.63;6.45;;;;;;;;;;5077789;28;20036;-78
2024/03/21 07:28:48;;;;;;;14.98;7.65;;;;;;;;;;5074899;28;20040;-78
2024/03/21 07:31:13;;;;;;;18.52;7.68;;;;;;;;;;5075920;28;20484;-78
2024/03/21 07:33:38;;;;;;;12.05;6.95;;;;;;;;;;5076364;28;20077;-78
2024/03/21 07:36:04;;;;;;;14.45;8.05;;;;;;;;;;5057559;28;20186;-78
2024/03/21 07:38:30;;;;;;;12.75;8.38;;;;;;;;;;5062567;28;20037;-78
2024/03/21 07:41:00;;;;;;;14.73;8.00;;;;;;;;;;5071543;28;20035;-78
2024/03/21 07:43:26;;;;;;;14.63;7.67;;;;;;;;;;5076139;28;20790;-78
2024/03/21 07:45:51;;;;;;;14.60;8.48;;;;;;;;;;5068814;28;20044;-77
2024/03/21 07:48:17;;;;;;;6.47;4.38;;;;;;;;;;5075839;28;20040;-78
2024/03/21 07:50:43;;;;;;;12.75;7.32;;;;;;;;;;5075081;28;20059;-78
2024/03/21 07:53:09;;;;;;;12.93;6.30;;;;;;;;;;5055807;28;20041;-78
2024/03/21 07:55:34;;;;;;;11.38;7.68;;;;;;;;;;5053005;28;20041;-77
2024/03/21 07:58:05;;;;;;;10.55;6.25;;;;;;;;;;5053459;28;20151;-78
2024/03/21 08:00:30;;;;;;;7.82;4.45;;;;;;;;;;5059134;28;20044;-78
2024/03/21 08:02:56;;;;;;;4.88;3.22;;;;;;;;;;5054501;28;20036;-78
2024/03/21 08:05:21;;;;;;;9.18;5.47;;;;;;;;;;5071054;28;20043;-78
2024/03/21 08:07:47;;;;;;;13.90;8.45;;;;;;;;;;5060736;28;20059;-78
2024/03/21 08:10:13;;;;;;;16.33;7.70;;;;;;;;;;5058028;28;20169;-78
2024/03/21 08:12:39;;;;;;;12.18;6.53;;;;;;;;;;5058644;28;20045;-78
2024/03/21 08:15:05;;;;;;;11.40;6.95;;;;;;;;;;5062269;28;20051;-78
2024/03/21 08:17:30;;;;;;;8.40;4.25;;;;;;;;;;5066842;28;20064;-78
2024/03/21 08:19:56;;;;;;;9.07;5.63;;;;;;;;;;5067769;28;20039;-78
2024/03/21 08:22:21;;;;;;;5.03;2.83;;;;;;;;;;5076257;28;20140;-78
2024/03/21 08:24:48;;;;;;;16.35;8.98;;;;;;;;;;5057298;28;20040;-78
2024/03/21 08:27:17;;;;;;;17.38;9.98;;;;;;;;;;5042333;28;20425;-77
2024/03/21 08:29:43;;;;;;;14.45;9.10;;;;;;;;;;5055864;28;20413;-77
2024/03/21 08:32:08;;;;;;;6.70;4.25;;;;;;;;;;5059582;28;20130;-78
2024/03/21 08:34:34;;;;;;;19.48;9.25;;;;;;;;;;5063677;28;20105;-78
2024/03/21 08:36:59;;;;;;;11.48;6.55;;;;;;;;;;5046324;28;20044;-78
2024/03/21 08:39:25;;;;;;;12.43;7.55;;;;;;;;;;5052443;28;20059;-78
2024/03/21 08:41:50;;;;;;;19.13;9.68;;;;;;;;;;5063249;28;20097;-78
2024/03/21 08:44:15;;;;;;;15.85;8.45;;;;;;;;;;5058655;28;20031;-78
2024/03/21 08:46:41;;;;;;;18.45;9.15;;;;;;;;;;5069726;28;20401;-77
2024/03/21 08:49:06;;;;;;;13.13;7.03;;;;;;;;;;5064121;28;20555;-78
2024/03/21 08:51:32;;;;;;;16.40;9.93;;;;;;;;;;5068671;28;20115;-78
2024/03/21 08:53:57;;;;;;;17.10;9.38;;;;;;;;;;5072177;28;20044;-78
2024/03/21 08:56:23;;;;;;;7.15;3.97;;;;;;;;;;5059762;28;20036;-78
2024/03/21 08:58:48;;;;;;;14.75;8.82;;;;;;;;;;5045234;28;20033;-78
2024/03/21 09:01:13;;;;;;;9.35;5.13;;;;;;;;;;5068040;28;20124;-78
2024/03/21 09:03:39;;;;;;;16.67;9.98;;;;;;;;;;5041821;28;20107;-78
2024/03/21 09:06:04;;;;;;;10.63;6.47;;;;;;;;;;5070683;28;20115;-78
2024/03/21 09:08:30;;;;;;;12.65;6.95;;;;;;;;;;5065637;28;20039;-78
2024/03/21 09:11:05;;;;;;;16.08;9.82;;;;;;;;;;5065109;28;20520;-78
2024/03/21 09:13:31;;;;;;;17.98;8.73;;;;;;;;;;5058674;28;20060;-78
2024/03/21 09:15:56;;;;;;;6.95;3.25;;;;;;;;;;5049149;28;20525;-79
2024/03/21 09:18:22;;;;;;;16.60;9.07;;;;;;;;;;5053821;28;20060;-78
2024/03/21 09:20:47;;;;;;;15.15;8.63;;;;;;;;;;5070300;28;20667;-78
2024/03/21 09:23:13;;;;;;;16.95;8.93;;;;;;;;;;5061675;28;20167;-78
2024/03/21 09:25:39;;;;;;;11.27;6.35;;;;;;;;;;5061901;28;20056;-78
2024/03/21 09:28:04;;;;;;;6.53;3.70;;;;;;;;;;5071069;28;20106;-78
2024/03/21 09:30:30;;;;;;;9.85;6.63;;;;;;;;;;5071334;28;20194;-78
2024/03/21 09:32:55;;;;;;;8.43;5.13;;;;;;;;;;5070565;28;20054;-78
2024/03/21 09:35:20;;;;;;;12.15;5.93;;;;;;;;;;5056654;28;20036;-78
2024/03/21 09:37:46;;;;;;;7.22;3.83;;;;;;;;;;5071289;28;20113;-78
2024/03/21 09:40:13;;;;;;;7.85;4.68;;;;;;;;;;5067958;28;20051;-78
2024/03/21 09:42:38;;;;;;;5.60;3.92;;;;;;;;;;5064656;28;20487;-78
2024/03/21 09:45:09;;;;;;;14.20;9.25;;;;;;;;;;5054846;28;20123;-78
2024/03/21 09:47:36;;;;;;;12.40;7.85;;;;;;;;;;5066082;28;20054;-78
2024/03/21 09:50:02;;;;;;;7.38;4.25;;;;;;;;;;5071997;28;20056;-78
2024/03/21 09:52:27;;;;;;;8.88;4.10;;;;;;;;;;5061031;28;20524;-78
2024/03/21 09:54:53;;;;;;;7.28;4.38;;;;;;;;;;5070454;28;20435;-78
2024/03/21 09:57:18;;;;;;;4.85;3.75;;;;;;;;;;5070968;28;20051;-78
2024/03/21 09:59:43;;;;;;;12.85;6.88;;;;;;;;;;5068435;28;20075;-78
2024/03/21 10:02:13;;;;;;;12.77;7.28;;;;;;;;;;5073272;28;20047;-78
2024/03/21 10:04:49;;;;;;;10.27;6.55;;;;;;;;;;5059255;28;20527;-78
2024/03/21 10:07:23;;;;;;;8.63;3.97;;;;;;;;;;5062586;28;20044;-78
2024/03/21 10:09:55;;;;;;;12.15;6.47;;;;;;;;;;5028361;28;20044;-78
2024/03/21 10:12:22;;;;;;;5.32;3.35;;;;;;;;;;5072924;28;20122;-78
2024/03/21 10:14:47;;;;;;;8.15;4.90;;;;;;;;;;5070536;28;20127;-78
2024/03/21 10:17:13;;;;;;;12.80;7.22;;;;;;;;;;5061832;28;20044;-78
2024/03/21 10:19:38;;;;;;;9.10;6.03;;;;;;;;;;5046605;28;20378;-78
2024/03/21 10:22:03;;;;;;;17.77;9.23;;;;;;;;;;5055940;28;20032;-78
2024/03/21 10:24:30;;;;;;;11.82;7.05;;;;;;;;;;5062606;28;20039;-78
2024/03/21 10:26:55;;;;;;;3.75;2.45;;;;;;;;;;5076653;28;20041;-78
2024/03/21 10:29:23;;;;;;;16.95;8.95;;;;;;;;;;5076988;28;20901;-78
2024/03/21 10:31:49;;;;;;;14.38;8.43;;;;;;;;;;5073959;28;20040;-78
2024/03/21 10:34:15;;;;;;;14.30;8.60;;;;;;;;;;5075388;28;20040;-78
2024/03/21 10:36:41;;;;;;;17.42;10.70;;;;;;;;;;5077179;28;20471;-78
2024/03/21 10:39:10;;;;;;;19.60;10.80;;;;;;;;;;5076411;28;20039;-77
2024/03/21 10:41:39;;;;;;;16.83;10.32;;;;;;;;;;5051646;28;20174;-78
2024/03/21 10:44:08;;;;;;;7.65;3.63;;;;;;;;;;5075337;28;20119;-78
2024/03/21 10:46:38;;;;;;;17.35;10.65;;;;;;;;;;5076841;28;20548;-78
2024/03/21 10:49:05;;;;;;;13.73;8.45;;;;;;;;;;5077037;28;20036;-77
2024/03/21 10:51:30;;;;;;;11.30;6.43;;;;;;;;;;5064657;28;20566;-78
2024/03/21 10:54:00;;;;;;;10.38;6.45;;;;;;;;;;5065069;28;20128;-78
2024/03/21 10:56:40;;;;;;;13.85;7.63;;;;;;;;;;5052738;28;20036;-78
2024/03/21 10:59:06;;;;;;;4.65;3.15;;;;;;;;;;5076919;28;20115;-78
2024/03/21 11:01:37;;;;;;;9.52;6.00;;;;;;;;;;5078218;28;20516;-78
2024/03/21 11:04:07;;;;;;;8.70;5.72;;;;;;;;;;5075286;28;20167;-78
2024/03/21 11:06:34;;;;;;;8.97;5.00;;;;;;;;;;5062528;28;20944;-78
2024/03/21 11:09:02;;;;;;;9.20;6.07;;;;;;;;;;5055560;28;20087;-78
2024/03/21 11:11:29;;;;;;;6.43;4.50;;;;;;;;;;5037665;28;20513;-78
2024/03/21 11:13:54;;;;;;;5.05;3.10;;;;;;;;;;5065118;28;20599;-78
2024/03/21 11:16:20;;;;;;;3.33;2.17;;;;;;;;;;5071596;28;20036;-78
2024/03/21 11:18:46;;;;;;;10.18;6.65;;;;;;;;;;5075947;28;20189;-78
2024/03/21 11:21:13;;;;;;;8.70;4.07;;;;;;;;;;5075330;28;20099;-78
2024/03/21 11:23:40;;;;;;;7.90;4.82;;;;;;;;;;5073221;28;20052;-78
2024/03/21 11:26:09;;;;;;;6.13;4.30;;;;;;;;;;5067269;28;20060;-78
2024/03/21 11:28:34;;;;;;;6.00;3.90;;;;;;;;;;5012978;28;20036;-78
2024/03/21 11:31:02;;;;;;;2.13;1.48;;;;;;;;;;5056269;28;20041;-78
2024/03/21 11:33:30;;;;;;;4.15;3.03;;;;;;;;;;5057556;28;20032;-78
2024/03/21 11:35:56;;;;;;;2.97;2.33;;;;;;;;;;5065654;28;20040;-79
2024/03/21 11:38:21;;;;;;;4.55;2.58;;;;;;;;;;5062460;28;20036;-79
2024/03/21 11:40:47;;;;;;;3.35;2.30;;;;;;;;;;5060544;28;20040;-78
2024/03/21 11:43:14;;;;;;;5.93;2.97;;;;;;;;;;5070925;28;20024;-78
2024/03/21 11:45:40;;;;;;;3.60;2.58;;;;;;;;;;5075938;28;20417;-78
2024/03/21 11:48:10;;;;;;;3.78;2.80;;;;;;;;;;5065441;28;20032;-79
2024/03/21 11:50:36;;;;;;;1.63;1.37;;;;;;;;;;5054306;28;20046;-78
2024/03/21 11:53:01;;;;;;;4.00;2.40;;;;;;;;;;5073635;28;20032;-79
2024/03/21 11:55:27;;;;;;;3.13;2.42;;;;;;;;;;5083266;28;20553;-79
2024/03/21 11:57:54;;;;;;;4.80;3.13;;;;;;;;;;5074637;28;20511;-78
2024/03/21 12:00:23;;;;;;;3.50;2.78;;;;;;;;;;5053495;28;20086;-78
2024/03/21 12:02:52;;;;;;;5.82;3.80;;;;;;;;;;5056690;28;20134;-79
2024/03/21 12:05:18;;;;;;;2.03;1.50;;;;;;;;;;5021633;28;1119011;-79
2024/03/21 12:07:44;;;;;;;3.55;1.33;;;;;;;;;;5068138;28;20036;-78
2024/03/21 12:10:10;;;;;;;3.63;2.33;;;;;;;;;;5070116;28;20040;-79
2024/03/21 12:12:36;;;;;;;3.10;2.22;;;;;;;;;;5044941;28;20536;-78
2024/03/21 12:15:02;;;;;;;4.15;2.45;;;;;;;;;;5058348;28;20036;-79
2024/03/21 12:17:27;;;;;;;2.92;2.08;;;;;;;;;;5045308;28;20068;-79
2024/03/21 12:19:53;;;;;;;1.65;1.45;;;;;;;;;;5074246;28;20047;-78
2024/03/21 12:22:19;;;;;;;2.25;1.85;;;;;;;;;;5074627;28;20119;-79
2024/03/21 12:24:45;;;;;;;2.60;1.42;;;;;;;;;;5076954;28;20111;-79
2024/03/21 12:27:11;;;;;;;2.45;1.58;;;;;;;;;;5058176;28;22134;-79
2024/03/21 12:29:36;;;;;;;2.83;2.35;;;;;;;;;;5071084;28;20035;-79
2024/03/21 12:32:02;;;;;;;2.20;1.70;;;;;;;;;;5054114;28;20571;-79
2024/03/21 12:34:27;;;;;;;4.07;2.30;;;;;;;;;;5064787;28;20119;-79
2024/03/21 12:36:52;;;;;;;2.53;1.70;;;;;;;;;;5082314;28;20157;-79
2024/03/21 12:39:19;;;;;;;1.85;1.25;;;;;;;;;;5072027;28;20040;-79
2024/03/21 12:41:45;;;;;;;1.60;1.40;;;;;;;;;;5076883;28;20097;-79
2024/03/21 12:44:10;;;;;;;1.17;0.55;;;;;;;;;;5071816;28;20043;-79
2024/03/21 12:46:36;;;;;;;1.45;0.77;;;;;;;;;;5076154;28;20104;-79
2024/03/21 12:49:01;;;;;;;1.60;1.45;;;;;;;;;;5060103;28;20043;-79
2024/03/21 12:51:27;;;;;;;1.80;1.10;;;;;;;;;;5047431;28;20737;-79
2024/03/21 12:53:52;;;;;;;0.75;0.73;;;;;;;;;;5074913;28;20043;-78
2024/03/21 12:56:17;;;;;;;0.55;0.55;;;;;;;;;;5076406;28;20115;-79
2024/03/21 12:58:44;;;;;;;1.45;1.33;;;;;;;;;;5076746;28;20032;-79
2024/03/21 13:01:10;;;;;;;0.40;0.40;;;;;;;;;;5065593;28;20048;-79
2024/03/21 13:03:36;;;;;;;0.95;0.93;;;;;;;;;;5041600;28;20798;-79
2024/03/21 13:06:01;;;;;;;1.38;1.27;;;;;;;;;;5057109;28;20140;-79
2024/03/21 13:08:27;;;;;;;1.35;1.25;;;;;;;;;;5052496;28;20781;-79
2024/03/21 13:10:52;;;;;;;1.50;1.40;;;;;;;;;;5061442;28;20040;-78
2024/03/21 13:13:17;;;;;;;2.55;1.20;;;;;;;;;;5074525;28;20106;-79
2024/03/21 13:15:43;;;;;;;1.50;0.93;;;;;;;;;;5065836;28;20089;-78
2024/03/21 13:18:08;;;;;;;1.38;1.27;;;;;;;;;;5065874;28;20157;-78
2024/03/21 13:20:34;;;;;;;2.95;1.00;;;;;;;;;;5069766;28;20028;-78
2024/03/21 13:22:59;;;;;;;0.93;0.80;;;;;;;;;;5080054;28;20028;-78
2024/03/21 13:25:29;;;;;;;1.13;1.00;;;;;;;;;;5078328;28;20045;-77
2024/03/21 13:27:55;;;;;;;3.67;2.00;;;;;;;;;;5031521;28;20048;-78
2024/03/21 13:30:20;;;;;;;0.90;0.90;;;;;;;;;;5063327;28;20457;-78
2024/03/21 13:32:48;;;;;;;1.40;1.30;;;;;;;;;;5068187;28;20046;-78
2024/03/21 13:35:14;;;;;;;1.38;1.27;;;;;;;;;;5041010;28;20044;-78
2024/03/21 13:37:40;;;;;;;1.90;1.60;;;;;;;;;;5065184;28;20043;-79
2024/03/21 13:40:06;;;;;;;3.05;1.65;;;;;;;;;;5073607;28;20043;-79
2024/03/21 13:42:31;;;;;;;1.35;1.23;;;;;;;;;;5069864;28;20058;-79
2024/03/21 13:44:57;;;;;;;4.43;2.00;;;;;;;;;;5070271;28;20029;-78
2024/03/21 13:47:22;;;;;;;3.28;1.73;;;;;;;;;;5078911;28;20032;-79
2024/03/21 13:49:48;;;;;;;2.83;1.73;;;;;;;;;;5058043;28;20044;-79
2024/03/21 13:52:13;;;;;;;2.58;1.23;;;;;;;;;;5066678;28;20397;-78
2024/03/21 13:54:39;;;;;;;2.47;1.50;;;;;;;;;;5077039;28;20451;-78
2024/03/21 13:57:10;;;;;;;3.55;1.85;;;;;;;;;;5077686;28;20039;-78
2024/03/21 13:59:37;;;;;;;2.10;0.82;;;;;;;;;;5061585;28;20044;-78
2024/03/21 14:02:03;;;;;;;1.95;1.05;;;;;;;;;;5071502;28;20047;-78
2024/03/21 14:04:28;;;;;;;1.63;0.80;;;;;;;;;;5070627;28;20125;-78
2024/03/21 14:06:54;;;;;;;2.97;1.67;;;;;;;;;;5069634;28;20068;-78
2024/03/21 14:09:22;;;;;;;2.67;1.38;;;;;;;;;;5060515;28;20072;-78
2024/03/21 14:11:48;;;;;;;2.60;1.60;;;;;;;;;;5068537;28;20067;-78
2024/03/21 14:14:13;;;;;;;2.90;1.77;;;;;;;;;;5075785;28;20040;-78
2024/03/21 14:16:38;;;;;;;0.45;0.40;;;;;;;;;;5056561;28;20036;-79
2024/03/21 14:19:04;;;;;;;5.28;2.92;;;;;;;;;;5075797;28;20040;-78
2024/03/21 14:21:29;;;;;;;4.00;2.28;;;;;;;;;;5071919;28;20582;-78
2024/03/21 14:23:55;;;;;;;1.90;1.10;;;;;;;;;;5066159;28;20119;-78
2024/03/21 14:26:22;;;;;;;4.25;1.77;;;;;;;;;;5056327;28;20723;-78
2024/03/21 14:28:49;;;;;;;3.53;2.38;;;;;;;;;;5048643;28;20044;-78
2024/03/21 14:31:15;;;;;;;4.75;2.58;;;;;;;;;;5056193;28;20124;-78
2024/03/21 14:33:40;;;;;;;6.53;3.72;;;;;;;;;;5039930;28;20067;-78
2024/03/21 14:36:06;;;;;;;2.53;1.65;;;;;;;;;;5054401;28;20044;-78